地図

経路データ

SID SEASON NUMBER BASIN SUBBASIN NAME ISO_TIME NATURE LAT LON WMO_WIND WMO_PRES WMO_AGENCY TRACK_TYPE DIST2LAND LANDFALL IFLAG USA_AGENCY USA_ATCF_ID USA_LAT USA_LON USA_RECORD USA_STATUS USA_WIND USA_PRES USA_SSHS USA_R34_NE USA_R34_SE USA_R34_SW USA_R34_NW USA_R50_NE USA_R50_SE USA_R50_SW USA_R50_NW USA_R64_NE USA_R64_SE USA_R64_SW USA_R64_NW USA_POCI USA_ROCI USA_RMW USA_EYE TOKYO_LAT TOKYO_LON TOKYO_GRADE TOKYO_WIND TOKYO_PRES TOKYO_R50_DIR TOKYO_R50_LONG TOKYO_R50_SHORT TOKYO_R30_DIR TOKYO_R30_LONG TOKYO_R30_SHORT TOKYO_LAND CMA_LAT CMA_LON CMA_CAT CMA_WIND CMA_PRES HKO_LAT HKO_LON HKO_CAT HKO_WIND HKO_PRES NEWDELHI_LAT NEWDELHI_LON NEWDELHI_GRADE NEWDELHI_WIND NEWDELHI_PRES NEWDELHI_CI NEWDELHI_DP NEWDELHI_POCI REUNION_LAT REUNION_LON REUNION_TYPE REUNION_WIND REUNION_PRES REUNION_TNUM REUNION_CI REUNION_RMW REUNION_R34_NE REUNION_R34_SE REUNION_R34_SW REUNION_R34_NW REUNION_R50_NE REUNION_R50_SE REUNION_R50_SW REUNION_R50_NW REUNION_R64_NE REUNION_R64_SE REUNION_R64_SW REUNION_R64_NW BOM_LAT BOM_LON BOM_TYPE BOM_WIND BOM_PRES BOM_TNUM BOM_CI BOM_RMW BOM_R34_NE BOM_R34_SE BOM_R34_SW BOM_R34_NW BOM_R50_NE BOM_R50_SE BOM_R50_SW BOM_R50_NW BOM_R64_NE BOM_R64_SE BOM_R64_SW BOM_R64_NW BOM_ROCI BOM_POCI BOM_EYE BOM_POS_METHOD BOM_PRES_METHOD NADI_LAT NADI_LON NADI_CAT NADI_WIND NADI_PRES WELLINGTON_LAT WELLINGTON_LON WELLINGTON_WIND WELLINGTON_PRES DS824_LAT DS824_LON DS824_STAGE DS824_WIND DS824_PRES TD9636_LAT TD9636_LON TD9636_STAGE TD9636_WIND TD9636_PRES TD9635_LAT TD9635_LON TD9635_WIND TD9635_PRES TD9635_ROCI NEUMANN_LAT NEUMANN_LON NEUMANN_CLASS NEUMANN_WIND NEUMANN_PRES MLC_LAT MLC_LON MLC_CLASS MLC_WIND MLC_PRES USA_GUST BOM_GUST BOM_GUST_PER REUNION_GUST REUNION_GUST_PER USA_SEAHGT USA_SEARAD_NE USA_SEARAD_SE USA_SEARAD_SW USA_SEARAD_NW STORM_SPEED STORM_DIR
1980284N09092 1980 87 NI BB NOT_NAMED 1980-10-10 06:00:00 TS 8.80000 92.3000 main 480 466 O________O____ jtwc_io IO011980 8.80000 92.3000 25 -1 8.80000 92.3000 TC 25 5 80
1980284N09092 1980 87 NI BB NOT_NAMED 1980-10-10 09:00:00 TS 8.84254 92.5575 main 459 454 P________P____ IO011980 8.84254 92.5575 25 -1 8.84254 92.5575 TC 25 5 79
1980284N09092 1980 87 NI BB NOT_NAMED 1980-10-10 12:00:00 TS 8.90000 92.8000 main 454 448 O________O____ jtwc_io IO011980 8.90000 92.8000 25 -1 8.90000 92.8000 TC 25 5 73
1980284N09092 1980 87 NI BB NOT_NAMED 1980-10-10 15:00:00 TS 8.98499 93.0150 main 451 445 P________P____ IO011980 8.98499 93.0150 25 -1 8.98499 93.0150 TC 25 4 63
1980284N09092 1980 87 NI BB NOT_NAMED 1980-10-10 18:00:00 TS 9.10000 93.2000 main 449 444 O________O____ jtwc_io IO011980 9.10000 93.2000 25 -1 9.10000 93.2000 TC 25 5 55
1980284N09092 1980 87 NI BB NOT_NAMED 1980-10-10 21:00:00 TS 9.25000 93.3950 main 459 455 P________P____ IO011980 9.25000 93.3950 22 -1 9.25000 93.3950 TC 22 4 44
1980284N09092 1980 87 NI BB NOT_NAMED 1980-10-11 00:00:00 TS 9.40000 93.5000 main 465 465 O________O____ jtwc_io IO011980 9.40000 93.5000 20 -1 9.40000 93.5000 TC 20 3 12
1980284N09092 1980 87 NI BB NOT_NAMED 1980-10-11 03:00:00 TS 9.51498 93.4525 main 475 475 P________P____ IO011980 9.51498 93.4525 20 -1 9.51498 93.4525 TC 20 3 315
1980284N09092 1980 87 NI BB NOT_NAMED 1980-10-11 06:00:00 TS 9.60000 93.3000 main 494 494 O________O____ jtwc_io IO011980 9.60000 93.3000 20 -1 9.60000 93.3000 TC 20 4 294
1980284N09092 1980 87 NI BB NOT_NAMED 1980-10-11 09:00:00 TS 9.66501 93.1150 main 514 514 P________P____ IO011980 9.66501 93.1150 22 -1 9.66501 93.1150 TC 22 4 284
1980284N09092 1980 87 NI BB NOT_NAMED 1980-10-11 12:00:00 TS 9.70000 92.9000 main 524 524 O________O____ jtwc_io IO011980 9.70000 92.9000 25 -1 9.70000 92.9000 TC 25 4 275
1980284N09092 1980 87 NI BB NOT_NAMED 1980-10-11 15:00:00 TS 9.69999 92.7000 main 535 535 P________P____ IO011980 9.69999 92.7000 25 -1 9.69999 92.7000 TC 25 4 270
1980284N09092 1980 87 NI BB NOT_NAMED 1980-10-11 18:00:00 TS 9.70000 92.5000 main 547 547 O________O____ jtwc_io IO011980 9.70000 92.5000 25 -1 9.70000 92.5000 TC 25 4 274
1980284N09092 1980 87 NI BB NOT_NAMED 1980-10-11 21:00:00 TS 9.72750 92.2925 main 559 559 P________P____ IO011980 9.72750 92.2925 25 -1 9.72750 92.2925 TC 25 4 284
1980284N09092 1980 87 NI BB NOT_NAMED 1980-10-12 00:00:00 TS 9.80000 92.1000 main 581 581 O________O____ jtwc_io IO011980 9.80000 92.1000 25 -1 9.80000 92.1000 TC 25 4 297
1980284N09092 1980 87 NI BB NOT_NAMED 1980-10-12 03:00:00 TS 9.91250 91.9275 main 603 603 P________P____ IO011980 9.91250 91.9275 25 -1 9.91250 91.9275 TC 25 4 316
1980284N09092 1980 87 NI BB NOT_NAMED 1980-10-12 06:00:00 TS 10.1000 91.8000 main 628 628 O________O____ jtwc_io IO011980 10.1000 91.8000 25 -1 10.1000 91.8000 TC 25 5 336
1980284N09092 1980 87 NI BB NOT_NAMED 1980-10-12 09:00:00 TS 10.4000 91.7050 main 661 641 P________P____ IO011980 10.4000 91.7050 25 -1 10.4000 91.7050 TC 25 6 351
1980284N09092 1980 87 NI BB NOT_NAMED 1980-10-12 12:00:00 TS 10.7000 91.7000 main 641 616 O________O____ jtwc_io IO011980 10.7000 91.7000 25 -1 10.7000 91.7000 TC 25 5 12
1980284N09092 1980 87 NI BB NOT_NAMED 1980-10-12 15:00:00 TS 10.8800 91.8125 main 616 596 P________P____ IO011980 10.8800 91.8125 25 -1 10.8800 91.8125 TC 25 4 44
1980284N09092 1980 87 NI BB NOT_NAMED 1980-10-12 18:00:00 TS 11.0000 92.0000 main 596 577 O________O____ jtwc_io IO011980 11.0000 92.0000 25 -1 11.0000 92.0000 TC 25 4 57
1980284N09092 1980 87 NI BB NOT_NAMED 1980-10-12 21:00:00 TS 11.1150 92.1775 main 577 558 P________P____ IO011980 11.1150 92.1775 25 -1 11.1150 92.1775 TC 25 4 63
1980284N09092 1980 87 NI BB NOT_NAMED 1980-10-13 00:00:00 TS 11.2000 92.4000 main 558 536 O________O____ jtwc_io IO011980 11.2000 92.4000 25 -1 11.2000 92.4000 TC 25 5 74
1980284N09092 1980 87 NI BB NOT_NAMED 1980-10-13 03:00:00 TS 11.2575 92.6925 main 536 526 P________P____ IO011980 11.2575 92.6925 25 -1 11.2575 92.6925 TC 25 6 80
1980284N09092 1980 87 NI BB NOT_NAMED 1980-10-13 06:00:00 TS 11.3000 93.0000 main 526 506 O________O____ jtwc_io IO011980 11.3000 93.0000 25 -1 11.3000 93.0000 TC 25 6 78
1980284N09092 1980 87 NI BB NOT_NAMED 1980-10-13 09:00:00 TS 11.3800 93.2649 main 506 502 P________P____ IO011980 11.3800 93.2649 25 -1 11.3800 93.2649 TC 25 5 78
1980284N09092 1980 87 NI BB NOT_NAMED 1980-10-13 12:00:00 TS 11.4000 93.5000 main 502 500 O________O____ jtwc_io IO011980 11.4000 93.5000 25 -1 11.4000 93.5000 TC 25 5 103
1980284N09092 1980 87 NI BB NOT_NAMED 1980-10-13 15:00:00 TS 11.2725 93.7301 main 509 505 P________P____ IO011980 11.2725 93.7301 25 -1 11.2725 93.7301 TC 25 5 128
1980284N09092 1980 87 NI BB NOT_NAMED 1980-10-13 18:00:00 TS 11.1000 93.9000 main 505 493 O________O____ jtwc_io IO011980 11.1000 93.9000 25 -1 11.1000 93.9000 TC 25 4 137
1980284N09092 1980 87 NI BB NOT_NAMED 1980-10-13 21:00:00 TS 11.0000 93.9875 main 493 493 P________P____ IO011980 11.0000 93.9875 25 -1 11.0000 93.9875 TC 25 2 153
1980284N09092 1980 87 NI BB NOT_NAMED 1980-10-14 00:00:00 TS 10.9000 94.0000 main 493 492 O________O____ jtwc_io IO011980 10.9000 94.0000 25 -1 10.9000 94.0000 TC 25 3 183
1980284N09092 1980 87 NI BB NOT_NAMED 1980-10-14 03:00:00 TS 10.7500 93.9800 main 492 492 P________P____ IO011980 10.7500 93.9800 25 -1 10.7500 93.9800 TC 25 3 197
1980284N09092 1980 87 NI BB NOT_NAMED 1980-10-14 06:00:00 TS 10.6000 93.9000 main 503 503 O________O____ jtwc_io IO011980 10.6000 93.9000 25 -1 10.6000 93.9000 TC 25 3 214
1980284N09092 1980 87 NI BB NOT_NAMED 1980-10-14 09:00:00 TS 10.4999 93.8101 main 514 514 P________P____ IO011980 10.4999 93.8101 25 -1 10.4999 93.8101 TC 25 4 236
1980284N09092 1980 87 NI BB NOT_NAMED 1980-10-14 12:00:00 TS 10.4000 93.6000 main 536 536 O________O____ jtwc_io IO011980 10.4000 93.6000 25 -1 10.4000 93.6000 TC 25 6 247
1980284N09092 1980 87 NI BB NOT_NAMED 1980-10-14 15:00:00 TS 10.2500 93.2174 main 560 560 P________P____ IO011980 10.2500 93.2174 25 -1 10.2500 93.2174 TC 25 9 251
1980284N09092 1980 87 NI BB NOT_NAMED 1980-10-14 18:00:00 TS 10.1000 92.7000 main 574 574 O________O____ jtwc_io IO011980 10.1000 92.7000 25 -1 10.1000 92.7000 TC 25 11 256
1980284N09092 1980 87 NI BB NOT_NAMED 1980-10-14 21:00:00 TS 9.98496 92.1300 main 599 599 P________P____ IO011980 9.98496 92.1300 25 -1 9.98496 92.1300 TC 25 12 260
1980284N09092 1980 87 NI BB NOT_NAMED 1980-10-15 00:00:00 TS 9.90000 91.5000 main 631 631 O________O____ jtwc_io IO011980 9.90000 91.5000 25 -1 9.90000 91.5000 TC 25 13 262
1980284N09092 1980 87 NI BB NOT_NAMED 1980-10-15 03:00:00 TS 9.81242 90.8574 main 668 668 P________P____ IO011980 9.81242 90.8574 25 -1 9.81242 90.8574 TC 25 13 266
1980284N09092 1980 87 NI BB NOT_NAMED 1980-10-15 06:00:00 TS 9.80000 90.2000 main 724 724 O________O____ jtwc_io IO011980 9.80000 90.2000 25 -1 9.80000 90.2000 TC 25 13 277
1980284N09092 1980 87 NI BB NOT_NAMED 1980-10-15 09:00:00 TS 9.97237 89.5504 main 790 790 P________P____ IO011980 9.97237 89.5504 25 -1 9.97237 89.5504 TC 25 13 283
1980284N09092 1980 87 NI BB NOT_NAMED 1980-10-15 12:00:00 TS 10.1000 88.9000 main 829 763 O________O____ jtwc_io IO011980 10.1000 88.9000 25 -1 10.1000 88.9000 TC 25 13 270
1980284N09092 1980 87 NI BB NOT_NAMED 1980-10-15 15:00:00 TS 9.98228 88.2650 main 763 680 P________P____ IO011980 9.98228 88.2650 25 -1 9.98228 88.2650 TC 25 13 253
1980284N09092 1980 87 NI BB NOT_NAMED 1980-10-15 18:00:00 TS 9.70000 87.6000 main 680 592 O________O____ jtwc_io IO011980 9.70000 87.6000 25 -1 9.70000 87.6000 TC 25 16 244
1980284N09092 1980 87 NI BB NOT_NAMED 1980-10-15 21:00:00 TS 9.28507 86.8421 main 582 495 P________P____ IO011980 9.28507 86.8421 27 -1 9.28507 86.8421 TC 27 17 242
1980284N09092 1980 87 NI BB NOT_NAMED 1980-10-16 00:00:00 TS 8.90000 86.1000 main 495 429 O________O____ jtwc_io IO011980 8.90000 86.1000 30 -1 8.90000 86.1000 TC 30 15 248
1980284N09092 1980 87 NI BB NOT_NAMED 1980-10-16 03:00:00 TS 8.74733 85.4703 main 425 363 P________P____ IO011980 8.74733 85.4703 30 -1 8.74733 85.4703 TC 30 12 260
1980284N09092 1980 87 NI BB NOT_NAMED 1980-10-16 06:00:00 TS 8.70000 84.9000 main 363 307 O________O____ jtwc_io IO011980 8.70000 84.9000 30 -1 8.70000 84.9000 TC 30 11 265
1980284N09092 1980 87 NI BB NOT_NAMED 1980-10-16 09:00:00 TS 8.64245 84.3276 main 297 247 P________P____ IO011980 8.64245 84.3276 32 -1 8.64245 84.3276 TC 32 11 265
1980284N09092 1980 87 NI BB NOT_NAMED 1980-10-16 12:00:00 TS 8.60000 83.8000 main 247 208 O________O____ jtwc_io IO011980 8.60000 83.8000 35 0 8.60000 83.8000 TC 35 10 265
1980284N09092 1980 87 NI BB NOT_NAMED 1980-10-16 15:00:00 TS 8.54992 83.3275 main 193 153 P________P____ IO011980 8.54992 83.3275 35 0 8.54992 83.3275 TC 35 9 264
1980284N09092 1980 87 NI BB NOT_NAMED 1980-10-16 18:00:00 TS 8.50000 82.9000 main 153 113 O________O____ jtwc_io IO011980 8.50000 82.9000 35 0 8.50000 82.9000 TC 35 8 263
1980284N09092 1980 87 NI BB NOT_NAMED 1980-10-16 21:00:00 TS 8.44994 82.4925 main 108 71 P________P____ IO011980 8.44994 82.4925 35 0 8.44994 82.4925 TC 35 8 263
1980284N09092 1980 87 NI BB NOT_NAMED 1980-10-17 00:00:00 TS 8.40000 82.1000 main 71 33 O________O____ jtwc_io IO011980 8.40000 82.1000 35 0 8.40000 82.1000 TC 35 8 263
1980284N09092 1980 87 NI BB NOT_NAMED 1980-10-17 03:00:00 TS 8.34996 81.7000 main 31 0 P________P____ IO011980 8.34996 81.7000 32 -1 8.34996 81.7000 TC 32 8 263
1980284N09092 1980 87 NI BB NOT_NAMED 1980-10-17 06:00:00 TS 8.30000 81.3000 main 0 0 O________O____ jtwc_io IO011980 8.30000 81.3000 30 -1 8.30000 81.3000 TC 30 8 263
1980284N09092 1980 87 NI BB NOT_NAMED 1980-10-17 09:00:00 TS 8.25735 80.9300 main 0 0 P________P____ IO011980 8.25735 80.9300 27 -1 8.25735 80.9300 TC 27 8 263
1980284N09092 1980 87 NI BB NOT_NAMED 1980-10-17 12:00:00 TS 8.20000 80.5000 main 0 0 O________O____ jtwc_io IO011980 8.20000 80.5000 25 -1 8.20000 80.5000 TC 25 10 261
1980284N09092 1980 87 NI BB NOT_NAMED 1980-10-17 15:00:00 TS 8.10729 79.9750 main 0 0 P________P____ IO011980 8.10729 79.9750 25 -1 8.10729 79.9750 TC 25 12 260
1980284N09092 1980 87 NI BB NOT_NAMED 1980-10-17 18:00:00 TS 8.00000 79.3000 main 44 44 O________O____ jtwc_io IO011980 8.00000 79.3000 25 -1 8.00000 79.3000 TC 25 16 262
1980284N09092 1980 87 NI BB NOT_NAMED 1980-10-17 21:00:00 TS 7.90028 78.4075 main 65 33 P________P____ IO011980 7.90028 78.4075 25 -1 7.90028 78.4075 TC 25 18 264
1980284N09092 1980 87 NI AS NOT_NAMED 1980-10-18 00:00:00 TS 7.80000 77.5000 main 33 33 O________O____ jtwc_io IO011980 7.80000 77.5000 25 -1 7.80000 77.5000 TC 25 16 262
1980284N09092 1980 87 NI AS NOT_NAMED 1980-10-18 03:00:00 TS 7.67724 76.8050 main 71 71 P________P____ IO011980 7.67724 76.8050 25 -1 7.67724 76.8050 TC 25 13 261
1980284N09092 1980 87 NI AS NOT_NAMED 1980-10-18 06:00:00 TS 7.60000 76.2000 main 125 125 O________O____ jtwc_io IO011980 7.60000 76.2000 25 -1 7.60000 76.2000 TC 25 12 268
1980284N09092 1980 87 NI AS NOT_NAMED 1980-10-18 09:00:00 TS 7.62747 75.5701 main 172 172 P________P____ IO011980 7.62747 75.5701 25 -1 7.62747 75.5701 TC 25 12 275
1980284N09092 1980 87 NI AS NOT_NAMED 1980-10-18 12:00:00 TS 7.70000 75.0000 main 212 212 O________O____ jtwc_io IO011980 7.70000 75.0000 25 -1 7.70000 75.0000 TC 25 10 276
1980284N09092 1980 87 NI AS NOT_NAMED 1980-10-18 15:00:00 TS 7.74237 74.5275 main 258 252 P________P____ IO011980 7.74237 74.5275 25 -1 7.74237 74.5275 TC 25 9 276
1980284N09092 1980 87 NI AS NOT_NAMED 1980-10-18 18:00:00 TS 7.80000 74.1000 main 291 291 O________O____ jtwc_io IO011980 7.80000 74.1000 25 -1 7.80000 74.1000 TC 25 9 279
1980284N09092 1980 87 NI AS NOT_NAMED 1980-10-18 21:00:00 TS 7.88493 73.6575 main 328 328 P________P____ IO011980 7.88493 73.6575 25 -1 7.88493 73.6575 TC 25 9 283
1980284N09092 1980 87 NI AS NOT_NAMED 1980-10-19 00:00:00 TS 8.00000 73.2000 main 375 375 O________O____ jtwc_io IO011980 8.00000 73.2000 25 -1 8.00000 73.2000 TC 25 10 284
1980284N09092 1980 87 NI AS NOT_NAMED 1980-10-19 03:00:00 TS 8.11994 72.7149 main 421 421 P________P____ IO011980 8.11994 72.7149 25 -1 8.11994 72.7149 TC 25 10 287
1980284N09092 1980 87 NI AS NOT_NAMED 1980-10-19 06:00:00 TS 8.30000 72.2000 main 467 467 O________O____ jtwc_io IO011980 8.30000 72.2000 25 -1 8.30000 72.2000 TC 25 11 293
1980284N09092 1980 87 NI AS NOT_NAMED 1980-10-19 09:00:00 TS 8.56996 71.6575 main 513 513 P________P____ IO011980 8.56996 71.6575 25 -1 8.56996 71.6575 TC 25 12 299
1980284N09092 1980 87 NI AS NOT_NAMED 1980-10-19 12:00:00 TS 8.90000 71.1000 main 567 567 O________O____ jtwc_io IO011980 8.90000 71.1000 25 -1 8.90000 71.1000 TC 25 13 301
1980284N09092 1980 87 NI AS NOT_NAMED 1980-10-19 15:00:00 TS 9.22748 70.5349 main 602 596 P________P____ IO011980 9.22748 70.5349 25 -1 9.22748 70.5349 TC 25 13 303
1980284N09092 1980 87 NI AS NOT_NAMED 1980-10-19 18:00:00 TS 9.60000 70.0000 main 628 628 O________O____ jtwc_io IO011980 9.60000 70.0000 25 -1 9.60000 70.0000 TC 25 13 309
1980284N09092 1980 87 NI AS NOT_NAMED 1980-10-19 21:00:00 TS 10.0326 69.5303 main 657 652 P________P____ IO011980 10.0326 69.5303 25 -1 10.0326 69.5303 TC 25 13 315
1980284N09092 1980 87 NI AS NOT_NAMED 1980-10-20 00:00:00 TS 10.5000 69.1000 main 672 O________O____ jtwc_io IO011980 10.5000 69.1000 25 -1 10.5000 69.1000 TC 25 13 318

IBTrACS Databaseについて

本データベースは、米国NOAAが公開する1842年以降の世界の熱帯低気圧のベストトラックデータアーカイブInternational Best Track Archive for Climate Stewardship (IBTrACS)を、ウェブで閲覧しやすい形式に変換したものです。

最終更新日:2021-10-08